createdAt,value
2023-05-06T08:09:25.107Z,100959.00
2023-05-06T08:15:37.689Z,100941.34
2023-05-06T08:21:42.046Z,100965.78
2023-05-06T08:27:49.815Z,100965.63
2023-05-06T08:34:08.262Z,100939.69
2023-05-06T08:40:39.169Z,100956.69
2023-05-06T08:46:43.118Z,100954.81
2023-05-06T08:59:14.190Z,100948.88
2023-05-06T09:05:29.256Z,100966.66
2023-05-06T09:11:35.455Z,100970.38
2023-05-06T09:17:42.588Z,100951.22
2023-05-06T09:23:47.937Z,100955.25
2023-05-06T09:36:28.939Z,100958.03
2023-05-06T09:42:34.096Z,100948.38
2023-05-06T09:48:39.676Z,100934.63
2023-05-06T09:54:47.204Z,100928.03
2023-05-06T10:00:57.140Z,100919.22
2023-05-06T10:07:06.504Z,100917.50
2023-05-06T10:13:17.287Z,100917.53
2023-05-06T10:19:26.990Z,100914.41
2023-05-06T10:25:41.352Z,100915.88
2023-05-06T10:31:56.454Z,100912.00
2023-05-06T10:38:04.576Z,100915.56
2023-05-06T10:44:08.275Z,100913.72
2023-05-06T10:50:40.683Z,100920.59
2023-05-06T10:56:58.950Z,100917.84
2023-05-06T11:03:23.369Z,100919.97
2023-05-06T11:09:34.160Z,100913.63
2023-05-06T11:15:58.893Z,100886.25
2023-05-06T11:22:07.616Z,100889.41
2023-05-06T11:28:14.943Z,100906.53
2023-05-06T11:34:33.786Z,100881.53
2023-05-06T11:40:44.020Z,100896.81
2023-05-06T11:53:43.629Z,100907.47
2023-05-06T11:59:56.079Z,100881.81
2023-05-06T12:06:09.290Z,100888.81
2023-05-06T12:12:21.395Z,100891.28
2023-05-06T12:18:45.030Z,100882.47
2023-05-06T12:24:59.693Z,100887.31
2023-05-06T12:31:27.224Z,100867.50
2023-05-06T12:37:35.903Z,100875.19
2023-05-06T12:43:43.648Z,100868.03
2023-05-06T12:50:03.784Z,100856.44
2023-05-06T12:56:13.729Z,100870.84
2023-05-06T13:02:18.307Z,100864.91
2023-05-06T13:08:25.139Z,100848.59
2023-05-06T13:14:41.901Z,100850.78
2023-05-06T13:20:51.961Z,100856.16
2023-05-06T13:27:04.553Z,100852.47
2023-05-06T13:33:13.607Z,100834.63
2023-05-06T13:39:21.436Z,100826.66
2023-05-06T13:45:27.414Z,100821.13
2023-05-06T13:51:35.253Z,100827.25
2023-05-06T13:57:56.716Z,100833.16
2023-05-06T14:04:01.920Z,100821.47
2023-05-06T14:10:45.960Z,100820.59
2023-05-06T14:17:00.557Z,100827.16
2023-05-06T14:23:19.159Z,100817.75
2023-05-06T14:29:24.206Z,100824.13
2023-05-06T14:35:31.389Z,100822.94
2023-05-06T14:41:39.334Z,100820.25
2023-05-06T14:47:46.747Z,100811.00
2023-05-06T14:53:51.488Z,100822.75
2023-05-06T15:00:02.432Z,100816.78
2023-05-06T15:12:28.345Z,100812.97
2023-05-06T15:18:33.452Z,100801.41
2023-05-06T15:24:40.964Z,100806.34
2023-05-06T15:30:49.255Z,100806.38
2023-05-06T15:37:04.099Z,100804.59
2023-05-06T15:43:13.824Z,100802.41
2023-05-06T15:55:35.159Z,100803.59
2023-05-06T16:02:25.461Z,100809.25
2023-05-06T16:08:15.223Z,100817.94
2023-05-06T16:14:24.827Z,100824.00
2023-05-06T16:26:52.084Z,100813.09
2023-05-06T16:32:57.636Z,100817.88
2023-05-06T16:39:02.960Z,100817.88
2023-05-06T16:45:14.948Z,100840.84
2023-05-06T16:51:22.784Z,100829.38
2023-05-06T16:57:33.446Z,100836.56
2023-05-06T17:03:41.921Z,100845.88
2023-05-06T17:09:53.954Z,100843.63
2023-05-06T17:16:08.791Z,100847.31
2023-05-06T17:22:12.201Z,100851.78
2023-05-06T17:28:24.488Z,100847.69
2023-05-06T17:34:33.821Z,100846.91
2023-05-06T17:40:44.128Z,100857.66
2023-05-06T17:46:49.181Z,100867.00
2023-05-06T17:52:55.222Z,100874.31
2023-05-06T17:59:04.159Z,100885.03
2023-05-06T18:05:09.328Z,100889.09
2023-05-06T18:11:20.732Z,100899.63
2023-05-06T18:23:43.857Z,100914.03
2023-05-06T18:29:46.128Z,100912.38
2023-05-06T18:35:49.766Z,100904.34
2023-05-06T18:41:52.576Z,100920.44
2023-05-06T18:47:57.681Z,100919.00
2023-05-06T18:54:03.148Z,100922.97
2023-05-06T19:00:09.142Z,100928.34
2023-05-06T19:06:26.943Z,100934.16
2023-05-06T19:12:30.966Z,100929.41
2023-05-06T19:18:34.499Z,100937.53
2023-05-06T19:24:38.887Z,100937.97
2023-05-06T19:30:47.585Z,100939.88
2023-05-06T19:37:09.580Z,100953.44
2023-05-06T19:43:25.298Z,100947.56
2023-05-06T19:49:33.450Z,100951.66
2023-05-06T19:55:50.768Z,100961.22
2023-05-06T20:01:57.698Z,100958.28
2023-05-06T20:08:03.088Z,100966.72
2023-05-06T20:14:11.458Z,100971.00
2023-05-06T20:20:20.286Z,100964.94
2023-05-06T20:26:33.032Z,100980.28
2023-05-06T20:39:05.733Z,100981.59
2023-05-06T20:45:11.602Z,100979.47
2023-05-06T20:51:22.203Z,100985.59
2023-05-06T20:57:34.301Z,100988.22
2023-05-06T21:03:44.485Z,100998.97
2023-05-06T21:09:49.058Z,101010.94
2023-05-06T21:16:02.705Z,101009.41
2023-05-06T21:22:17.510Z,101021.56
2023-05-06T21:28:30.310Z,101008.84
2023-05-06T21:34:36.931Z,101015.59
2023-05-06T21:40:43.655Z,101010.97
2023-05-06T21:46:52.503Z,101007.66
2023-05-06T21:52:55.413Z,101012.22
2023-05-06T21:59:02.911Z,101012.41
2023-05-06T22:05:11.933Z,101006.56
2023-05-06T22:11:14.841Z,101027.22
2023-05-06T22:17:20.499Z,101019.56
2023-05-06T22:23:24.639Z,101014.34
2023-05-06T22:29:28.451Z,101013.00
2023-05-06T22:35:30.834Z,101001.16
2023-05-06T22:41:33.446Z,100997.63
2023-05-06T22:47:36.232Z,100994.81
2023-05-06T22:53:39.401Z,101002.25
2023-05-06T22:59:43.885Z,101014.34
2023-05-06T23:05:47.946Z,101010.63
2023-05-06T23:11:58.554Z,101016.91
2023-05-06T23:18:02.929Z,101009.22
2023-05-06T23:24:08.911Z,101004.09
2023-05-06T23:30:13.294Z,101002.28
2023-05-06T23:36:20.471Z,101004.28
2023-05-06T23:42:29.048Z,101009.31
2023-05-06T23:48:46.551Z,100992.28
2023-05-06T23:54:54.652Z,101000.25
